| time (UTC) | temp F | wind direction | speed MPH | gust MPH | rain 1hr in | rain 24hr in | rain mn in | humidity % | barometer mb |
| 20260508231439 | 66 | 352 | 0.0 | 0.0 | 0.00 | 0.00 | 0.00 | 71 | 1017.1 |
| 20260508230936 | 66 | 352 | 0.0 | 0.0 | 0.00 | 0.00 | 0.00 | 67 | 1016.9 |
| 20260508230433 | 67 | 352 | 0.0 | 0.0 | 0.00 | 0.00 | 0.00 | 64 | 1017.1 |
| 20260508225930 | 68 | 352 | 0.0 | 0.0 | 0.00 | 0.00 | 0.00 | 66 | 1017.3 |
| 20260508225427 | 68 | 352 | 0.0 | 0.0 | 0.00 | 0.00 | 0.00 | 65 | 1017.2 |
| 20260508224924 | 68 | 352 | 0.0 | 0.0 | 0.00 | 0.00 | 0.00 | 64 | 1017.3 |
| 20260508224422 | 69 | 352 | 0.0 | 0.0 | 0.00 | 0.00 | 0.00 | 64 | 1017.0 |
| 20260508223919 | 69 | 352 | 0.0 | 0.0 | 0.00 | 0.00 | 0.00 | 64 | 1017.3 |
| 20260508223417 | 69 | 352 | 0.0 | 0.0 | 0.00 | 0.00 | 0.00 | 59 | 1017.2 |
| 20260508222914 | 69 | 352 | 0.0 | 0.0 | 0.00 | 0.00 | 0.00 | 62 | 1017.4 |
| 20260508222411 | 69 | 59 | 2.0 | 3.0 | 0.00 | 0.00 | 0.00 | 55 | 1017.4 |
| 20260508221907 | 71 | 7 | 0.0 | 0.0 | 0.00 | 0.00 | 0.00 | 56 | 1017.3 |
| 20260508221403 | 74 | 297 | 0.0 | 1.0 | 0.00 | 0.00 | 0.00 | 53 | 1017.4 |
| 20260508220859 | 75 | 270 | 0.0 | 0.0 | 0.00 | 0.00 | 0.00 | 53 | 1017.2 |
| 20260508220356 | 74 | 327 | 0.0 | 2.0 | 0.00 | 0.00 | 0.00 | 49 | 1017.3 |
| 20260508215852 | 73 | 84 | 0.0 | 1.0 | 0.00 | 0.00 | 0.00 | 53 | 1017.2 |
| 20260508215349 | 74 | 90 | 0.0 | 1.0 | 0.00 | 0.00 | 0.00 | 56 | 1017.0 |
| 20260508214846 | 73 | 286 | 0.0 | 0.0 | 0.00 | 0.00 | 0.00 | 55 | 1017.3 |
| 20260508214344 | 73 | 286 | 0.0 | 0.0 | 0.00 | 0.00 | 0.00 | 55 | 1017.0 |
| 20260508213840 | 73 | 278 | 0.0 | 0.0 | 0.00 | 0.00 | 0.00 | 55 | 1017.0 |
| 20260508213337 | 73 | 294 | 0.0 | 0.0 | 0.00 | 0.00 | 0.00 | 59 | 1017.2 |
| 20260508212833 | 71 | 90 | 0.0 | 0.0 | 0.00 | 0.00 | 0.00 | 54 | 1017.0 |
| 20260508212330 | 73 | 294 | 0.0 | 1.0 | 0.00 | 0.00 | 0.00 | 55 | 1016.9 |
| 20260508211825 | 72 | 286 | 0.0 | 1.0 | 0.00 | 0.00 | 0.00 | 57 | 1017.2 |
| 20260508211321 | 72 | 270 | 0.0 | 0.0 | 0.00 | 0.00 | 0.00 | 54 | 1017.0 |
| 20260508210819 | 72 | 29 | 0.0 | 1.0 | 0.00 | 0.00 | 0.00 | 50 | 1017.3 |
| 20260508210315 | 72 | 40 | 0.0 | 0.0 | 0.00 | 0.00 | 0.00 | 56 | 1017.4 |
| 20260508205812 | 72 | 90 | 0.0 | 0.0 | 0.00 | 0.00 | 0.00 | 53 | 1017.5 |
| 20260508205308 | 74 | 90 | 0.0 | 2.0 | 0.00 | 0.00 | 0.00 | 49 | 1017.4 |
| 20260508204805 | 73 | 270 | 2.0 | 3.0 | 0.00 | 0.00 | 0.00 | 45 | 1017.6 |
| 20260508204302 | 72 | 353 | 0.0 | 2.0 | 0.00 | 0.00 | 0.00 | 49 | 1017.3 |
| 20260508203758 | 73 | 345 | 1.0 | 5.0 | 0.00 | 0.00 | 0.00 | 42 | 1017.2 |
| 20260508203254 | 73 | 328 | 2.0 | 6.0 | 0.00 | 0.00 | 0.00 | 45 | 1017.4 |
| 20260508202750 | 74 | 69 | 0.0 | 1.0 | 0.00 | 0.00 | 0.00 | 46 | 1017.3 |
| 20260508202247 | 76 | 289 | 0.0 | 0.0 | 0.00 | 0.00 | 0.00 | 48 | 1017.4 |
| 20260508201744 | 74 | 54 | 0.0 | 6.0 | 0.00 | 0.00 | 0.00 | 48 | 1017.7 |
| 20260508201241 | 74 | 66 | 0.0 | 2.0 | 0.00 | 0.00 | 0.00 | 50 | 1017.8 |
| 20260508200738 | 74 | 285 | 1.0 | 2.0 | 0.00 | 0.00 | 0.00 | 48 | 1017.9 |
| 20260508200234 | 73 | 327 | 4.0 | 5.0 | 0.00 | 0.00 | 0.00 | 42 | 1017.9 |
| 20260508195730 | 75 | 283 | 1.0 | 2.0 | 0.00 | 0.00 | 0.00 | 50 | 1017.7 |
| 20260508195227 | 75 | 70 | 0.0 | 2.0 | 0.00 | 0.00 | 0.00 | 49 | 1017.8 |
| 20260508194724 | 75 | 331 | 2.0 | 2.0 | 0.00 | 0.00 | 0.00 | 45 | 1018.1 |
| 20260508194220 | 73 | 34 | 2.0 | 4.0 | 0.00 | 0.00 | 0.00 | 43 | 1018.3 |
| 20260508193717 | 73 | 41 | 0.0 | 2.0 | 0.00 | 0.00 | 0.00 | 46 | 1018.4 |
| 20260508193214 | 73 | 75 | 0.0 | 2.0 | 0.00 | 0.00 | 0.00 | 51 | 1018.4 |
| 20260508192711 | 73 | 69 | 1.0 | 2.0 | 0.00 | 0.00 | 0.00 | 45 | 1018.3 |
| 20260508192208 | 73 | 0 | 0.0 | 1.0 | 0.00 | 0.00 | 0.00 | 44 | 1018.4 |
| 20260508191705 | 72 | 5 | 2.0 | 3.0 | 0.00 | 0.00 | 0.00 | 39 | 1019.0 |
| 20260508191201 | 73 | 23 | 0.0 | 4.0 | 0.00 | 0.00 | 0.00 | 49 | 1018.6 |
| 20260508190659 | 73 | 291 | 1.0 | 3.0 | 0.00 | 0.00 | 0.00 | 54 | 1018.5 |
| 20260508190155 | 72 | 70 | 2.0 | 3.0 | 0.00 | 0.00 | 0.00 | 43 | 1018.7 |
| 20260508185652 | 74 | 15 | 0.0 | 1.0 | 0.00 | 0.00 | 0.00 | 53 | 1018.8 |
| 20260508185149 | 73 | 300 | 0.0 | 2.0 | 0.00 | 0.00 | 0.00 | 44 | 1018.7 |
| 20260508184646 | 73 | 8 | 0.0 | 2.0 | 0.00 | 0.00 | 0.00 | 55 | 1019.4 |
| 20260508184144 | 73 | 57 | 0.0 | 3.0 | 0.00 | 0.00 | 0.00 | 57 | 1019.2 |
| 20260508183640 | 73 | 54 | 0.0 | 2.0 | 0.00 | 0.00 | 0.00 | 56 | 1019.2 |
| 20260508183136 | 72 | 27 | 0.0 | 3.0 | 0.00 | 0.00 | 0.00 | 58 | 1019.2 |
| 20260508182633 | 72 | 5 | 0.0 | 2.0 | 0.00 | 0.00 | 0.00 | 49 | 1019.2 |
| 20260508182129 | 73 | 289 | 0.0 | 3.0 | 0.00 | 0.00 | 0.00 | 60 | 1019.2 |
| 20260508181625 | 71 | 74 | 0.0 | 2.0 | 0.00 | 0.00 | 0.00 | 51 | 1019.2 |
| 20260508181123 | 72 | 0 | 0.0 | 1.0 | 0.00 | 0.00 | 0.00 | 52 | 1019.3 |
| 20260508180619 | 71 | 57 | 0.0 | 2.0 | 0.00 | 0.00 | 0.00 | 58 | 1019.3 |
| 20260508180115 | 70 | 297 | 0.0 | 3.0 | 0.00 | 0.00 | 0.00 | 57 | 1019.5 |
| 20260508175612 | 68 | 270 | 1.0 | 3.0 | 0.00 | 0.00 | 0.00 | 44 | 1019.6 |
| 20260508175109 | 70 | 270 | 3.0 | 3.0 | 0.00 | 0.00 | 0.00 | 51 | 1019.7 |
| 20260508174607 | 69 | 270 | 0.0 | 4.0 | 0.00 | 0.00 | 0.00 | 54 | 1019.8 |
| 20260508174103 | 68 | 29 | 3.0 | 5.0 | 0.00 | 0.00 | 0.00 | 50 | 1020.0 |
| 20260508173601 | 69 | 279 | 4.0 | 4.0 | 0.00 | 0.00 | 0.00 | 53 | 1019.8 |
| 20260508173056 | 67 | 352 | 3.0 | 5.0 | 0.00 | 0.00 | 0.00 | 51 | 1020.0 |
| 20260508172554 | 67 | 334 | 0.0 | 3.0 | 0.00 | 0.00 | 0.00 | 53 | 1019.9 |
| 20260508172050 | 67 | 39 | 3.0 | 5.0 | 0.00 | 0.00 | 0.00 | 47 | 1020.1 |
| 20260508171547 | 67 | 325 | 0.0 | 5.0 | 0.00 | 0.00 | 0.00 | 48 | 1020.3 |
| 20260508171043 | 67 | 309 | 5.0 | 6.0 | 0.00 | 0.00 | 0.00 | 52 | 1020.6 |
| 20260508170541 | 68 | 66 | 0.0 | 0.0 | 0.00 | 0.00 | 0.00 | 60 | 1020.4 |
| 20260508170038 | 68 | 328 | 3.0 | 4.0 | 0.00 | 0.00 | 0.00 | 53 | 1020.8 |
| 20260508165535 | 70 | 306 | 0.0 | 1.0 | 0.00 | 0.00 | 0.00 | 64 | 1020.4 |
| 20260508165032 | 68 | 66 | 0.0 | 2.0 | 0.00 | 0.00 | 0.00 | 65 | 1020.8 |
| 20260508164528 | 67 | 283 | 0.0 | 4.0 | 0.00 | 0.00 | 0.00 | 60 | 1020.6 |
| 20260508164025 | 65 | 77 | 1.0 | 2.0 | 0.00 | 0.00 | 0.00 | 51 | 1020.8 |
| 20260508163523 | 67 | 196 | 0.0 | 3.0 | 0.00 | 0.00 | 0.00 | 55 | 1020.8 |
| 20260508163019 | 67 | 14 | 1.0 | 1.0 | 0.00 | 0.00 | 0.00 | 59 | 1020.9 |
| 20260508162516 | 65 | 340 | 0.0 | 3.0 | 0.00 | 0.00 | 0.00 | 54 | 1020.8 |
| 20260508162013 | 65 | 275 | 2.0 | 4.0 | 0.00 | 0.00 | 0.00 | 55 | 1021.1 |
| 20260508161510 | 66 | 329 | 3.0 | 5.0 | 0.00 | 0.00 | 0.00 | 52 | 1021.0 |
| 20260508161007 | 66 | 330 | 2.0 | 3.0 | 0.00 | 0.00 | 0.00 | 58 | 1021.1 |
| 20260508160506 | 64 | 54 | 1.0 | 5.0 | 0.00 | 0.00 | 0.00 | 53 | 1021.3 |
| 20260508160002 | 65 | 18 | 3.0 | 6.0 | 0.00 | 0.00 | 0.00 | 57 | 1021.3 |
| 20260508155459 | 65 | 337 | 3.0 | 4.0 | 0.00 | 0.00 | 0.00 | 54 | 1021.3 |
| 20260508154956 | 66 | 270 | 0.0 | 2.0 | 0.00 | 0.00 | 0.00 | 69 | 1021.6 |
| 20260508154454 | 64 | 286 | 0.0 | 1.0 | 0.00 | 0.00 | 0.00 | 58 | 1021.6 |
| 20260508153950 | 64 | 356 | 2.0 | 3.0 | 0.00 | 0.00 | 0.00 | 59 | 1021.6 |
| 20260508153447 | 65 | 82 | 1.0 | 2.0 | 0.00 | 0.00 | 0.00 | 63 | 1021.5 |
| 20260508152943 | 64 | 67 | 2.0 | 2.0 | 0.00 | 0.00 | 0.00 | 62 | 1021.3 |
| 20260508152440 | 64 | 69 | 3.0 | 4.0 | 0.00 | 0.00 | 0.00 | 57 | 1021.4 |
| 20260508151936 | 64 | 20 | 0.0 | 1.0 | 0.00 | 0.00 | 0.00 | 62 | 1021.5 |
| 20260508151433 | 62 | 0 | 1.0 | 3.0 | 0.00 | 0.00 | 0.00 | 62 | 1021.4 |
| 20260508150929 | 62 | 29 | 3.0 | 4.0 | 0.00 | 0.00 | 0.00 | 57 | 1021.4 |
| 20260508150426 | 62 | 79 | 2.0 | 5.0 | 0.00 | 0.00 | 0.00 | 67 | 1021.5 |
| 20260508145922 | 61 | 28 | 0.0 | 4.0 | 0.00 | 0.00 | 0.00 | 60 | 1021.5 |
| 20260508145419 | 60 | 263 | 0.0 | 4.0 | 0.00 | 0.00 | 0.00 | 64 | 1021.6 |
| 20260508144915 | 60 | 90 | 0.0 | 3.0 | 0.00 | 0.00 | 0.00 | 69 | 1021.6 |
| 20260508144413 | 58 | 0 | 2.0 | 4.0 | 0.00 | 0.00 | 0.00 | 68 | 1021.8 |
| 20260508143911 | 56 | 84 | 0.0 | 3.0 | 0.00 | 0.00 | 0.00 | 72 | 1021.6 |
| 20260508143408 | 54 | 98 | 1.0 | 2.0 | 0.00 | 0.00 | 0.00 | 81 | 1021.5 |
| 20260508142904 | 53 | 54 | 0.0 | 3.0 | 0.00 | 0.00 | 0.00 | 93 | 1021.7 |
| 20260508142401 | 52 | 66 | 1.0 | 3.0 | 0.00 | 0.00 | 0.00 | 96 | 1021.6 |
| 20260508141858 | 51 | 106 | 0.0 | 2.0 | 0.00 | 0.00 | 0.00 | 92 | 1021.6 |
| 20260508141354 | 51 | 75 | 2.0 | 2.0 | 0.00 | 0.00 | 0.00 | 99 | 1021.7 |
| 20260508140852 | 51 | 41 | 2.0 | 2.0 | 0.00 | 0.00 | 0.00 | 99 | 1021.7 |
| 20260508140349 | 51 | 308 | 3.0 | 3.0 | 0.00 | 0.00 | 0.00 | 99 | 1021.6 |
| 20260508135844 | 51 | 81 | 0.0 | 2.0 | 0.00 | 0.00 | 0.00 | 99 | 1021.3 |
| 20260508135341 | 51 | 20 | 0.0 | 2.0 | 0.00 | 0.00 | 0.00 | 99 | 1021.5 |
| 20260508134837 | 51 | 60 | 0.0 | 2.0 | 0.00 | 0.00 | 0.00 | 99 | 1021.6 |
| 20260508134334 | 51 | 67 | 2.0 | 2.0 | 0.00 | 0.00 | 0.00 | 99 | 1021.6 |
| 20260508133831 | 51 | 81 | 0.0 | 2.0 | 0.00 | 0.00 | 0.00 | 99 | 1021.6 |
| 20260508133329 | 50 | 37 | 0.0 | 2.0 | 0.00 | 0.00 | 0.00 | 99 | 1021.4 |
| 20260508132826 | 50 | 74 | 0.0 | 2.0 | 0.00 | 0.00 | 0.00 | 99 | 1021.5 |
| 20260508132323 | 50 | 90 | 0.0 | 2.0 | 0.00 | 0.00 | 0.00 | 99 | 1021.5 |
| 20260508131820 | 51 | 77 | 1.0 | 2.0 | 0.00 | 0.00 | 0.00 | 99 | 1021.5 |
| 20260508131315 | 51 | 90 | 1.0 | 2.0 | 0.00 | 0.00 | 0.00 | 99 | 1021.3 |
| 20260508130812 | 51 | 112 | 2.0 | 2.0 | 0.00 | 0.00 | 0.00 | 99 | 1021.5 |
| 20260508130309 | 51 | 100 | 2.0 | 2.0 | 0.00 | 0.00 | 0.00 | 99 | 1021.4 |
| 20260508125805 | 51 | 66 | 1.0 | 3.0 | 0.00 | 0.00 | 0.00 | 99 | 1021.3 |
| 20260508125305 | 51 | 75 | 1.0 | 2.0 | 0.00 | 0.00 | 0.00 | 99 | 1021.3 |
| 20260508124800 | 51 | 66 | 1.0 | 2.0 | 0.00 | 0.00 | 0.00 | 99 | 1021.1 |
| 20260508124257 | 51 | 111 | 1.0 | 3.0 | 0.00 | 0.00 | 0.00 | 99 | 1021.1 |
| 20260508123755 | 51 | 112 | 2.0 | 2.0 | 0.00 | 0.00 | 0.00 | 99 | 1021.2 |
| 20260508123253 | 51 | 82 | 1.0 | 2.0 | 0.00 | 0.00 | 0.00 | 99 | 1020.9 |
| 20260508122748 | 51 | 65 | 0.0 | 2.0 | 0.00 | 0.00 | 0.00 | 99 | 1020.9 |
| 20260508122246 | 51 | 70 | 2.0 | 2.0 | 0.00 | 0.00 | 0.00 | 99 | 1020.9 |
| 20260508121743 | 51 | 33 | 0.0 | 2.0 | 0.00 | 0.00 | 0.00 | 99 | 1020.7 |
| 20260508121242 | 50 | 66 | 0.0 | 1.0 | 0.00 | 0.00 | 0.00 | 99 | 1021.0 |
| 20260508120738 | 50 | 0 | 0.0 | 1.0 | 0.00 | 0.00 | 0.00 | 99 | 1020.9 |
| 20260508120237 | 50 | 90 | 1.0 | 2.0 | 0.00 | 0.00 | 0.00 | 99 | 1020.8 |
| 20260508115734 | 49 | 146 | 0.0 | 3.0 | 0.00 | 0.00 | 0.00 | 99 | 1021.0 |
| 20260508115231 | 49 | 69 | 0.0 | 2.0 | 0.00 | 0.00 | 0.00 | 99 | 1020.7 |
| 20260508114727 | 49 | 90 | 1.0 | 2.0 | 0.00 | 0.00 | 0.00 | 99 | 1020.4 |
| 20260508114224 | 48 | 72 | 2.0 | 2.0 | 0.00 | 0.00 | 0.00 | 99 | 1020.3 |
| 20260508113721 | 48 | 90 | 0.0 | 2.0 | 0.00 | 0.00 | 0.00 | 99 | 1020.3 |
| 20260508113220 | 48 | 41 | 0.0 | 2.0 | 0.00 | 0.00 | 0.00 | 99 | 1020.1 |
| 20260508112715 | 48 | 7 | 0.0 | 2.0 | 0.00 | 0.00 | 0.00 | 99 | 1020.3 |
| 20260508112212 | 47 | 66 | 1.0 | 3.0 | 0.00 | 0.00 | 0.00 | 99 | 1019.9 |
| 20260508111709 | 47 | 81 | 0.0 | 2.0 | 0.00 | 0.00 | 0.00 | 99 | 1020.1 |
| 20260508111207 | 47 | 90 | 1.0 | 1.0 | 0.00 | 0.00 | 0.00 | 99 | 1019.9 |
| 20260508110704 | 47 | 73 | 0.0 | 2.0 | 0.00 | 0.00 | 0.00 | 99 | 1019.8 |
| 20260508110200 | 47 | 90 | 2.0 | 2.0 | 0.00 | 0.00 | 0.00 | 99 | 1020.0 |
| 20260508105655 | 47 | 60 | 2.0 | 2.0 | 0.00 | 0.00 | 0.00 | 99 | 1019.9 |
| 20260508105152 | 47 | 37 | 2.0 | 2.0 | 0.00 | 0.00 | 0.00 | 99 | 1019.6 |
| 20260508104649 | 47 | 14 | 0.0 | 2.0 | 0.00 | 0.00 | 0.00 | 99 | 1019.6 |
| 20260508104146 | 47 | 10 | 0.0 | 2.0 | 0.00 | 0.00 | 0.00 | 99 | 1019.4 |
| 20260508103643 | 47 | 102 | 1.0 | 2.0 | 0.00 | 0.00 | 0.00 | 99 | 1019.4 |
| 20260508103140 | 47 | 57 | 1.0 | 2.0 | 0.00 | 0.00 | 0.00 | 99 | 1019.1 |
| 20260508102637 | 47 | 74 | 0.0 | 3.0 | 0.00 | 0.00 | 0.00 | 99 | 1019.0 |
| 20260508102135 | 47 | 90 | 1.0 | 2.0 | 0.00 | 0.00 | 0.00 | 99 | 1019.0 |
| 20260508101632 | 47 | 74 | 0.0 | 2.0 | 0.00 | 0.00 | 0.00 | 99 | 1018.9 |
| 20260508101130 | 48 | 74 | 0.0 | 3.0 | 0.00 | 0.00 | 0.00 | 99 | 1018.6 |
| 20260508100627 | 48 | 75 | 1.0 | 2.0 | 0.00 | 0.00 | 0.00 | 99 | 1018.8 |
| 20260508100125 | 48 | 55 | 2.0 | 4.0 | 0.00 | 0.00 | 0.00 | 99 | 1018.8 |
| 20260508095621 | 48 | 90 | 2.0 | 2.0 | 0.00 | 0.00 | 0.00 | 99 | 1018.9 |
| 20260508095119 | 48 | 109 | 1.0 | 2.0 | 0.00 | 0.00 | 0.00 | 99 | 1019.1 |
| 20260508094615 | 48 | 90 | 0.0 | 2.0 | 0.00 | 0.00 | 0.00 | 99 | 1018.8 |
| 20260508094112 | 48 | 96 | 2.0 | 3.0 | 0.00 | 0.00 | 0.00 | 99 | 1018.8 |
| 20260508093609 | 48 | 66 | 0.0 | 2.0 | 0.00 | 0.00 | 0.00 | 99 | 1018.7 |
| 20260508093107 | 48 | 84 | 0.0 | 2.0 | 0.00 | 0.00 | 0.00 | 99 | 1018.6 |
| 20260508092604 | 49 | 99 | 0.0 | 3.0 | 0.00 | 0.00 | 0.00 | 99 | 1018.7 |
| 20260508092103 | 49 | 84 | 1.0 | 2.0 | 0.00 | 0.00 | 0.00 | 99 | 1018.7 |
| 20260508091559 | 49 | 120 | 1.0 | 2.0 | 0.00 | 0.00 | 0.00 | 99 | 1018.5 |
| 20260508091056 | 49 | 99 | 0.0 | 2.0 | 0.00 | 0.00 | 0.00 | 99 | 1018.6 |
| 20260508090554 | 49 | 123 | 0.0 | 2.0 | 0.00 | 0.00 | 0.00 | 99 | 1018.6 |
| 20260508090050 | 49 | 98 | 2.0 | 3.0 | 0.00 | 0.00 | 0.00 | 99 | 1018.4 |
| 20260508085547 | 49 | 60 | 0.0 | 2.0 | 0.00 | 0.00 | 0.00 | 99 | 1018.4 |
| 20260508085045 | 49 | 66 | 1.0 | 2.0 | 0.00 | 0.00 | 0.00 | 99 | 1018.3 |
| 20260508084541 | 50 | 53 | 0.0 | 2.0 | 0.00 | 0.00 | 0.00 | 99 | 1018.3 |
| 20260508084039 | 50 | 74 | 0.0 | 1.0 | 0.00 | 0.00 | 0.00 | 99 | 1018.4 |
| 20260508083536 | 50 | 68 | 2.0 | 2.0 | 0.00 | 0.00 | 0.00 | 99 | 1018.5 |
| 20260508083032 | 50 | 90 | 1.0 | 2.0 | 0.00 | 0.00 | 0.00 | 99 | 1018.2 |
| 20260508082528 | 50 | 0 | 0.0 | 2.0 | 0.00 | 0.00 | 0.00 | 99 | 1018.4 |
| 20260508082026 | 50 | 90 | 1.0 | 2.0 | 0.00 | 0.00 | 0.00 | 99 | 1018.3 |
| 20260508081523 | 50 | 54 | 0.0 | 2.0 | 0.00 | 0.00 | 0.00 | 99 | 1018.2 |
| 20260508081019 | 50 | 81 | 0.0 | 2.0 | 0.00 | 0.00 | 0.00 | 99 | 1018.3 |
| 20260508080517 | 50 | 35 | 0.0 | 2.0 | 0.00 | 0.00 | 0.00 | 99 | 1018.2 |
| 20260508080014 | 51 | 74 | 0.0 | 1.0 | 0.00 | 0.00 | 0.00 | 99 | 1018.1 |
| 20260508075511 | 51 | 131 | 2.0 | 2.0 | 0.00 | 0.00 | 0.00 | 99 | 1018.0 |
| 20260508075008 | 51 | 107 | 0.0 | 3.0 | 0.00 | 0.00 | 0.00 | 99 | 1017.8 |
| 20260508074506 | 51 | 60 | 0.0 | 2.0 | 0.00 | 0.00 | 0.00 | 99 | 1018.0 |
| 20260508074002 | 51 | 74 | 0.0 | 2.0 | 0.00 | 0.00 | 0.00 | 99 | 1017.9 |
| 20260508073500 | 51 | 84 | 0.0 | 2.0 | 0.00 | 0.00 | 0.00 | 99 | 1018.0 |
| 20260508072957 | 51 | 90 | 0.0 | 1.0 | 0.00 | 0.00 | 0.00 | 99 | 1017.9 |
| 20260508072453 | 51 | 82 | 1.0 | 2.0 | 0.00 | 0.00 | 0.00 | 99 | 1018.0 |
| 20260508071950 | 51 | 105 | 1.0 | 2.0 | 0.00 | 0.00 | 0.00 | 99 | 1017.9 |
| 20260508071448 | 51 | 78 | 1.0 | 2.0 | 0.00 | 0.00 | 0.00 | 99 | 1017.9 |
| 20260508070945 | 51 | 109 | 1.0 | 2.0 | 0.00 | 0.00 | 0.00 | 99 | 1017.8 |
| 20260508070443 | 51 | 90 | 1.0 | 2.0 | 0.00 | 0.00 | 0.00 | 99 | 1017.6 |
| 20260508065941 | 51 | 70 | 2.0 | 3.0 | 0.00 | 0.00 | 0.00 | 99 | 1017.9 |
| 20260508065439 | 50 | 358 | 3.0 | 3.0 | 0.00 | 0.00 | 0.00 | 99 | 1017.8 |
| 20260508064937 | 51 | 29 | 0.0 | 2.0 | 0.00 | 0.00 | 0.00 | 99 | 1017.6 |
| 20260508064434 | 51 | 83 | 0.0 | 4.0 | 0.00 | 0.00 | 0.00 | 99 | 1017.7 |
| 20260508063931 | 51 | 7 | 0.0 | 2.0 | 0.00 | 0.00 | 0.00 | 99 | 1017.6 |
| 20260508063429 | 51 | 75 | 1.0 | 2.0 | 0.00 | 0.00 | 0.00 | 99 | 1017.6 |
| 20260508062926 | 51 | 28 | 2.0 | 3.0 | 0.00 | 0.00 | 0.00 | 99 | 1017.4 |
| 20260508062424 | 51 | 90 | 0.0 | 2.0 | 0.00 | 0.00 | 0.00 | 99 | 1017.7 |
| 20260508061921 | 51 | 90 | 2.0 | 3.0 | 0.00 | 0.00 | 0.00 | 99 | 1017.7 |
| 20260508061418 | 51 | 77 | 0.0 | 2.0 | 0.00 | 0.00 | 0.00 | 99 | 1017.7 |
| 20260508060914 | 51 | 345 | 0.0 | 2.0 | 0.00 | 0.00 | 0.00 | 99 | 1017.8 |
| 20260508060412 | 51 | 105 | 1.0 | 2.0 | 0.00 | 0.00 | 0.00 | 99 | 1017.6 |
| 20260508055907 | 51 | 45 | 0.0 | 2.0 | 0.00 | 0.00 | 0.00 | 99 | 1017.8 |
| 20260508055404 | 51 | 82 | 0.0 | 2.0 | 0.00 | 0.00 | 0.00 | 99 | 1017.6 |
| 20260508054901 | 51 | 54 | 1.0 | 1.0 | 0.00 | 0.00 | 0.00 | 99 | 1017.8 |
| 20260508054358 | 51 | 66 | 1.0 | 2.0 | 0.00 | 0.00 | 0.00 | 99 | 1017.9 |
| 20260508053855 | 52 | 60 | 2.0 | 2.0 | 0.00 | 0.00 | 0.00 | 99 | 1017.6 |
| 20260508053352 | 52 | 117 | 0.0 | 2.0 | 0.00 | 0.00 | 0.00 | 99 | 1017.6 |
| 20260508052850 | 51 | 60 | 1.0 | 1.0 | 0.00 | 0.00 | 0.00 | 99 | 1017.6 |
| 20260508052347 | 51 | 81 | 0.0 | 1.0 | 0.00 | 0.00 | 0.00 | 99 | 1017.5 |
| 20260508051843 | 51 | 74 | 0.0 | 0.0 | 0.00 | 0.00 | 0.00 | 99 | 1017.5 |
| 20260508051338 | 52 | 81 | 0.0 | 0.0 | 0.00 | 0.00 | 0.00 | 99 | 1017.6 |
| 20260508050835 | 52 | 90 | 0.0 | 1.0 | 0.00 | 0.00 | 0.00 | 99 | 1017.6 |
| 20260508050332 | 52 | 74 | 0.0 | 0.0 | 0.00 | 0.00 | 0.00 | 99 | 1017.5 |
| 20260508045828 | 52 | 66 | 1.0 | 1.0 | 0.00 | 0.00 | 0.00 | 99 | 1017.5 |
| 20260508045326 | 52 | 74 | 0.0 | 0.0 | 0.00 | 0.00 | 0.00 | 99 | 1017.5 |
| 20260508044823 | 52 | 74 | 0.0 | 0.0 | 0.00 | 0.00 | 0.00 | 99 | 1017.3 |
| 20260508044319 | 52 | 74 | 0.0 | 0.0 | 0.00 | 0.00 | 0.00 | 99 | 1017.5 |
| 20260508043816 | 53 | 83 | 1.0 | 2.0 | 0.00 | 0.00 | 0.00 | 99 | 1017.1 |
| 20260508043313 | 53 | 74 | 0.0 | 1.0 | 0.00 | 0.00 | 0.00 | 99 | 1017.3 |
| 20260508042810 | 53 | 74 | 0.0 | 0.0 | 0.00 | 0.00 | 0.00 | 99 | 1017.1 |
| 20260508042308 | 53 | 74 | 0.0 | 0.0 | 0.00 | 0.00 | 0.00 | 99 | 1017.2 |
| 20260508041804 | 53 | 60 | 1.0 | 2.0 | 0.00 | 0.00 | 0.00 | 99 | 1017.1 |
| 20260508041300 | 53 | 74 | 0.0 | 1.0 | 0.00 | 0.00 | 0.00 | 99 | 1017.2 |
| 20260508040757 | 53 | 74 | 0.0 | 1.0 | 0.00 | 0.00 | 0.00 | 99 | 1017.1 |
| 20260508040255 | 53 | 90 | 0.0 | 0.0 | 0.00 | 0.00 | 0.00 | 99 | 1017.1 |
| 20260508035752 | 54 | 74 | 1.0 | 1.0 | 0.00 | 1.24 | 1.24 | 99 | 1017.2 |
| 20260508035249 | 54 | 81 | 0.0 | 0.0 | 0.00 | 1.24 | 1.24 | 99 | 1017.2 |
| 20260508034745 | 54 | 74 | 0.0 | 0.0 | 0.00 | 1.24 | 1.24 | 99 | 1017.0 |
| 20260508034243 | 54 | 90 | 0.0 | 0.0 | 0.00 | 1.24 | 1.24 | 99 | 1017.0 |
| 20260508033740 | 54 | 90 | 0.0 | 0.0 | 0.00 | 1.24 | 1.24 | 99 | 1017.0 |
| 20260508033238 | 55 | 90 | 0.0 | 1.0 | 0.00 | 1.24 | 1.24 | 99 | 1017.0 |
| 20260508032735 | 55 | 40 | 0.0 | 2.0 | 0.00 | 1.24 | 1.24 | 99 | 1017.0 |
| 20260508032232 | 55 | 15 | 0.0 | 1.0 | 0.00 | 1.24 | 1.24 | 99 | 1017.1 |
| 20260508031729 | 55 | 66 | 0.0 | 0.0 | 0.00 | 1.24 | 1.24 | 99 | 1017.1 |
| 20260508031225 | 55 | 66 | 0.0 | 0.0 | 0.00 | 1.24 | 1.24 | 99 | 1017.1 |
| 20260508030722 | 55 | 66 | 0.0 | 1.0 | 0.00 | 1.24 | 1.24 | 99 | 1016.9 |
| 20260508030219 | 55 | 90 | 0.0 | 0.0 | 0.00 | 1.24 | 1.24 | 99 | 1016.9 |
| 20260508025715 | 55 | 90 | 0.0 | 0.0 | 0.00 | 1.24 | 1.24 | 99 | 1016.8 |
| 20260508025213 | 55 | 90 | 0.0 | 0.0 | 0.00 | 1.24 | 1.24 | 99 | 1016.7 |
| 20260508024708 | 55 | 90 | 0.0 | 0.0 | 0.00 | 1.24 | 1.24 | 99 | 1016.8 |
| 20260508024206 | 55 | 15 | 0.0 | 0.0 | 0.00 | 1.24 | 1.24 | 99 | 1016.5 |
| 20260508023701 | 55 | 15 | 0.0 | 0.0 | 0.00 | 1.24 | 1.24 | 99 | 1016.5 |
| 20260508023200 | 55 | 15 | 0.0 | 0.0 | 0.00 | 1.24 | 1.24 | 99 | 1016.6 |
| 20260508022655 | 55 | 15 | 0.0 | 0.0 | 0.00 | 1.24 | 1.24 | 99 | 1016.8 |
| 20260508022153 | 55 | 15 | 0.0 | 0.0 | 0.00 | 1.24 | 1.24 | 99 | 1016.6 |
| 20260508021649 | 55 | 15 | 0.0 | 0.0 | 0.00 | 1.24 | 1.24 | 99 | 1016.4 |
| 20260508021144 | 55 | 15 | 0.0 | 0.0 | 0.00 | 1.24 | 1.24 | 99 | 1016.4 |
| 20260508020642 | 56 | 15 | 0.0 | 0.0 | 0.00 | 1.24 | 1.24 | 99 | 1016.6 |
| 20260508020140 | 55 | 15 | 0.0 | 0.0 | 0.00 | 1.24 | 1.24 | 99 | 1016.1 |
| 20260508015637 | 55 | 15 | 0.0 | 1.0 | 0.00 | 1.24 | 1.24 | 99 | 1016.2 |
| 20260508015134 | 56 | 69 | 0.0 | 1.0 | 0.00 | 1.24 | 1.24 | 99 | 1015.9 |
| 20260508014630 | 56 | 99 | 0.0 | 0.0 | 0.00 | 1.24 | 1.24 | 99 | 1015.9 |
| 20260508014126 | 56 | 66 | 1.0 | 1.0 | 0.00 | 1.24 | 1.24 | 99 | 1015.7 |
| 20260508013623 | 56 | 81 | 0.0 | 1.0 | 0.00 | 1.24 | 1.24 | 99 | 1015.8 |
| 20260508013120 | 56 | 82 | 0.0 | 0.0 | 0.00 | 1.24 | 1.24 | 99 | 1015.5 |
| 20260508012617 | 57 | 90 | 0.0 | 1.0 | 0.00 | 1.24 | 1.24 | 99 | 1016.0 |
| 20260508012114 | 57 | 83 | 0.0 | 1.0 | 0.00 | 1.24 | 1.24 | 99 | 1015.8 |
| 20260508011613 | 57 | 90 | 1.0 | 2.0 | 0.00 | 1.24 | 1.24 | 99 | 1015.4 |
| 20260508011109 | 57 | 74 | 0.0 | 0.0 | 0.00 | 1.24 | 1.24 | 99 | 1015.5 |
| 20260508010606 | 57 | 90 | 0.0 | 0.0 | 0.00 | 1.24 | 1.24 | 99 | 1015.2 |
| 20260508010105 | 57 | 81 | 0.0 | 2.0 | 0.00 | 1.24 | 1.24 | 99 | 1014.8 |
| 20260508005600 | 57 | 66 | 0.0 | 0.0 | 0.00 | 1.24 | 1.24 | 99 | 1015.0 |
| 20260508005057 | 57 | 26 | 0.0 | 2.0 | 0.00 | 1.24 | 1.24 | 99 | 1014.9 |
| 20260508004553 | 57 | 78 | 2.0 | 2.0 | 0.00 | 1.24 | 1.24 | 99 | 1014.4 |
| 20260508004050 | 57 | 66 | 0.0 | 1.0 | 0.00 | 1.24 | 1.24 | 99 | 1014.7 |
| 20260508003546 | 58 | 74 | 0.0 | 1.0 | 0.00 | 1.24 | 1.24 | 99 | 1014.5 |
| 20260508003044 | 58 | 75 | 0.0 | 1.0 | 0.00 | 1.24 | 1.24 | 99 | 1014.5 |
| 20260508002540 | 58 | 81 | 0.0 | 0.0 | 0.00 | 1.24 | 1.24 | 99 | 1014.5 |
| 20260508002037 | 58 | 78 | 0.0 | 2.0 | 0.00 | 1.24 | 1.24 | 99 | 1014.0 |
| 20260508001533 | 58 | 90 | 1.0 | 2.0 | 0.00 | 1.24 | 1.24 | 99 | 1013.8 |
| 20260508001029 | 58 | 65 | 0.0 | 2.0 | 0.00 | 1.24 | 1.24 | 99 | 1013.7 |
| 20260508000525 | 58 | 0 | 0.0 | 2.0 | 0.00 | 1.24 | 1.24 | 99 | 1013.6 |
| 20260508000023 | 58 | 94 | 2.0 | 2.0 | 0.00 | 1.24 | 1.24 | 99 | 1013.9 |
| 20260507235519 | 58 | 57 | 0.0 | 3.0 | 0.00 | 1.24 | 1.24 | 99 | 1013.7 |
| 20260507235017 | 58 | 261 | 0.0 | 2.0 | 0.00 | 1.24 | 1.24 | 99 | 1013.5 |
| 20260507234513 | 58 | 264 | 2.0 | 4.0 | 0.00 | 1.24 | 1.24 | 99 | 1013.4 |
| 20260507234010 | 58 | 60 | 2.0 | 5.0 | 0.00 | 1.24 | 1.24 | 99 | 1013.5 |
| 20260507233506 | 59 | 270 | 1.0 | 3.0 | 0.00 | 1.24 | 1.24 | 99 | 1013.6 |
| 20260507233005 | 59 | 29 | 2.0 | 5.0 | 0.00 | 1.24 | 1.24 | 99 | 1013.2 |
| 20260507232501 | 59 | 26 | 0.0 | 3.0 | 0.00 | 1.24 | 1.24 | 99 | 1013.4 |
| 20260507231959 | 59 | 353 | 0.0 | 2.0 | 0.00 | 1.24 | 1.24 | 99 | 1013.3 |